Eviapetrol II — SY6858 — position and weather

sailwx.info

Track history (hours):
 
Tides and Currents Weather Stations Pressure Air Temp Water Temp Dewpoint Dewpoint Depression Visibility Wind Speed Wind Dir Waves Ship Positions

Eviapetrol II

Last reported at 2015-Jul-30 06:32 UTC. Time now 2015-Jul-30 12:09 UTC.
Position N 37°54' E 023°06'.

Length 78 m; draft 4.3 m.

Type: Tanker. MMSI: 240493000.

Date/timePositionNaut miles runAvg speedWind from/ knotsBaromVisibWave heightAir tempDewpointWater temp
2015-Jul-30 06:32N 37°54' E 023°06'9 9.2
2015-Jul-30 05:33N 37°55' E 023°17'8 7.8
2015-Jul-30 04:33N 37°60' E 023°26'8 6.6
2015-Jul-30 03:19N 38°02' E 023°36'0 0.0
2015-Jul-30 02:33N 38°02' E 023°36'0 0.0
2015-Jul-30 01:33N 38°02' E 023°36'0 0.0
2015-Jul-30 00:32N 38°02' E 023°36'0 0.0
2015-Jul-29 23:33N 38°02' E 023°36'0 0.0
2015-Jul-29 22:33N 38°02' E 023°36'0 0.0
2015-Jul-29 21:33N 38°02' E 023°36'0 0.0
2015-Jul-29 20:33N 38°02' E 023°36'0 0.0
2015-Jul-29 19:33N 38°02' E 023°36'0 0.0
2015-Jul-29 18:33N 38°02' E 023°36'0 0.0
2015-Jul-29 17:33N 38°02' E 023°36'1 0.1
2015-Jul-29 09:07N 38°01' E 023°35'4 7.3
2015-Jul-29 08:32N 38°01' E 023°30'8 8.3
2015-Jul-29 07:33N 37°57' E 023°22'1010.1
2015-Jul-29 06:33N 37°54' E 023°09'31 6.0
2015-Jul-29 01:27N 38°08' E 022°34'  
2015-Jul-25 12:33N 38°08' E 022°35'25 6.1
2015-Jul-25 08:26N 37°55' E 023°03'2 0.1
2015-Jul-24 16:22N 37°55' E 023°05'2 0.6
2015-Jul-24 13:28N 37°54' E 023°07'1110.4
2015-Jul-24 12:26N 37°53' E 023°21'8 9.5
2015-Jul-24 11:34N 37°54' E 023°31'5 5.4
2015-Jul-24 10:33N 37°53' E 023°38'1010.4
2015-Jul-24 09:34N 37°43' E 023°44'  
Track history (hours):
 
Tides and Currents Weather Stations Pressure Air Temp Water Temp Dewpoint Dewpoint Depression Visibility Wind Speed Wind Dir Waves Ship Positions

Eviapetrol II

Last reported at 2015-Jul-30 06:32 UTC. Time now 2015-Jul-30 12:09 UTC.
Position N 37°54' E 023°06'.

Length 78 m; draft 4.3 m.

Type: Tanker. MMSI: 240493000.

Date/timePositionNaut miles runAvg speedWind from/ knotsBaromVisibWave heightAir tempDewpointWater temp
2015-Jul-30 06:32N 37°54' E 023°06'9 9.2
2015-Jul-30 05:33N 37°55' E 023°17'8 7.8
2015-Jul-30 04:33N 37°60' E 023°26'8 6.6
2015-Jul-30 03:19N 38°02' E 023°36'0 0.0
2015-Jul-30 02:33N 38°02' E 023°36'0 0.0
2015-Jul-30 01:33N 38°02' E 023°36'0 0.0
2015-Jul-30 00:32N 38°02' E 023°36'0 0.0
2015-Jul-29 23:33N 38°02' E 023°36'0 0.0
2015-Jul-29 22:33N 38°02' E 023°36'0 0.0
2015-Jul-29 21:33N 38°02' E 023°36'0 0.0
2015-Jul-29 20:33N 38°02' E 023°36'0 0.0
2015-Jul-29 19:33N 38°02' E 023°36'0 0.0
2015-Jul-29 18:33N 38°02' E 023°36'0 0.0
2015-Jul-29 17:33N 38°02' E 023°36'1 0.1
2015-Jul-29 09:07N 38°01' E 023°35'4 7.3
2015-Jul-29 08:32N 38°01' E 023°30'8 8.3
2015-Jul-29 07:33N 37°57' E 023°22'1010.1
2015-Jul-29 06:33N 37°54' E 023°09'31 6.0
2015-Jul-29 01:27N 38°08' E 022°34'  
2015-Jul-25 12:33N 38°08' E 022°35'25 6.1
2015-Jul-25 08:26N 37°55' E 023°03'2 0.1
2015-Jul-24 16:22N 37°55' E 023°05'2 0.6
2015-Jul-24 13:28N 37°54' E 023°07'1110.4
2015-Jul-24 12:26N 37°53' E 023°21'8 9.5
2015-Jul-24 11:34N 37°54' E 023°31'5 5.4
2015-Jul-24 10:33N 37°53' E 023°38'1010.4
2015-Jul-24 09:34N 37°43' E 023°44'  

Dump ship's entire track history